createdAt,value
2022-08-09T00:00:34.933Z,100298.06
2022-08-09T00:04:00.037Z,100293.16
2022-08-09T00:06:18.384Z,100294.75
2022-08-09T00:08:48.439Z,100287.66
2022-08-09T00:11:24.259Z,100293.91
2022-08-09T00:13:52.492Z,100290.31
2022-08-09T00:16:25.849Z,100301.25
2022-08-09T00:19:09.529Z,100298.47
2022-08-09T00:21:38.906Z,100295.97
2022-08-09T00:24:22.650Z,100294.63
2022-08-09T00:26:51.340Z,100298.97
2022-08-09T00:29:39.847Z,100294.31
2022-08-09T00:32:06.558Z,100288.56
2022-08-09T00:34:33.718Z,100299.97
2022-08-09T00:37:01.057Z,100291.78
2022-08-09T00:40:09.302Z,100280.84
2022-08-09T00:44:17.020Z,100286.03
2022-08-09T00:45:14.823Z,100287.91
2022-08-09T00:47:43.778Z,100282.47
2022-08-09T00:50:14.244Z,100278.13
2022-08-09T00:52:42.527Z,100277.03
2022-08-09T00:55:32.792Z,100284.09
2022-08-09T00:57:59.167Z,100281.38
2022-08-09T01:00:27.706Z,100286.78
2022-08-09T01:03:21.198Z,100288.63
2022-08-09T01:06:21.579Z,100281.56
2022-08-09T01:09:39.613Z,100281.28
2022-08-09T01:12:27.564Z,100289.44
2022-08-09T01:15:16.636Z,100290.22
2022-08-09T01:17:57.935Z,100292.09
2022-08-09T01:21:00.008Z,100284.44
2022-08-09T01:24:03.566Z,100298.84
2022-08-09T01:26:59.818Z,100293.16
2022-08-09T01:29:54.990Z,100295.56
2022-08-09T01:32:37.064Z,100301.81
2022-08-09T01:35:28.644Z,100298.00
2022-08-09T01:38:15.137Z,100290.91
2022-08-09T01:41:04.851Z,100286.78
2022-08-09T01:43:48.025Z,100287.59
2022-08-09T01:46:29.555Z,100286.72
2022-08-09T01:49:12.498Z,100287.56
2022-08-09T01:51:54.382Z,100289.69
2022-08-09T01:54:35.656Z,100296.47
2022-08-09T01:57:15.230Z,100287.75
2022-08-09T01:59:52.107Z,100293.97
2022-08-09T02:02:32.017Z,100293.41
2022-08-09T02:05:15.309Z,100290.94
2022-08-09T02:08:39.105Z,100303.97
2022-08-09T02:10:55.892Z,100304.28
2022-08-09T02:13:26.108Z,100299.06
2022-08-09T02:16:07.087Z,100298.44
2022-08-09T02:18:38.203Z,100299.28
2022-08-09T02:21:17.257Z,100312.59
2022-08-09T02:23:57.779Z,100302.41
2022-08-09T02:26:28.899Z,100308.72
2022-08-09T02:29:24.347Z,100315.47
2022-08-09T02:32:00.863Z,100318.75
2022-08-09T02:34:40.249Z,100319.25
2022-08-09T02:37:14.132Z,100314.59
2022-08-09T02:40:09.375Z,100324.06
2022-08-09T02:42:41.957Z,100316.47
2022-08-09T02:45:16.378Z,100319.47
2022-08-09T02:47:57.573Z,100317.25
2022-08-09T02:50:34.907Z,100318.63
2022-08-09T02:53:10.472Z,100325.66
2022-08-09T02:55:58.325Z,100318.03
2022-08-09T02:58:35.701Z,100311.97
2022-08-09T03:01:08.436Z,100317.13
2022-08-09T03:04:18.011Z,100317.88
2022-08-09T03:06:29.030Z,100317.06
2022-08-09T03:08:57.175Z,100325.47
2022-08-09T03:12:06.472Z,100322.19
2022-08-09T03:14:16.043Z,100324.59
2022-08-09T03:16:45.127Z,100327.56
2022-08-09T03:19:59.035Z,100331.84
2022-08-09T03:22:12.126Z,100341.84
2022-08-09T03:25:05.762Z,100344.72
2022-08-09T03:27:44.997Z,100351.09
2022-08-09T03:30:23.632Z,100347.53
2022-08-09T03:32:58.672Z,100350.06
2022-08-09T03:35:44.213Z,100356.88
2022-08-09T03:38:16.147Z,100355.19
2022-08-09T03:40:56.277Z,100349.38
2022-08-09T03:43:23.261Z,100355.88
2022-08-09T03:46:05.090Z,100358.44
2022-08-09T03:48:51.422Z,100363.88
2022-08-09T03:51:55.142Z,100353.50
2022-08-09T03:54:11.377Z,100364.16
2022-08-09T03:56:41.197Z,100358.78
2022-08-09T03:59:20.989Z,100359.03
2022-08-09T04:01:59.257Z,100360.72
2022-08-09T04:04:32.643Z,100364.13
2022-08-09T04:07:06.460Z,100358.00
2022-08-09T04:09:44.374Z,100360.22
2022-08-09T04:12:31.007Z,100366.22
2022-08-09T04:15:11.347Z,100366.13
2022-08-09T04:17:47.412Z,100375.28
2022-08-09T04:20:16.525Z,100373.06
2022-08-09T04:22:45.535Z,100367.28
2022-08-09T04:25:13.174Z,100368.38
2022-08-09T04:27:49.003Z,100381.47
2022-08-09T04:30:20.791Z,100378.41
2022-08-09T04:32:51.539Z,100383.34
2022-08-09T04:35:21.887Z,100395.03
2022-08-09T04:37:49.912Z,100398.44
2022-08-09T04:40:28.635Z,100407.75
2022-08-09T04:43:03.826Z,100398.91
2022-08-09T04:45:36.264Z,100400.31
2022-08-09T04:48:18.167Z,100412.53
2022-08-09T04:50:45.588Z,100420.09
2022-08-09T04:53:16.920Z,100412.53
2022-08-09T04:55:58.467Z,100421.28
2022-08-09T04:58:31.882Z,100421.47
2022-08-09T05:01:02.209Z,100417.97
2022-08-09T05:03:42.306Z,100419.25
2022-08-09T05:06:21.822Z,100426.19
2022-08-09T05:09:00.393Z,100420.66
2022-08-09T05:11:32.352Z,100432.66
2022-08-09T05:14:06.007Z,100434.31
2022-08-09T05:16:58.117Z,100436.31
2022-08-09T05:19:24.483Z,100435.59
2022-08-09T05:21:55.257Z,100438.66
2022-08-09T05:24:24.667Z,100442.28
2022-08-09T05:26:52.724Z,100441.22
2022-08-09T05:29:21.722Z,100444.41
2022-08-09T05:31:56.637Z,100445.41
2022-08-09T05:34:31.315Z,100450.84
2022-08-09T05:37:04.963Z,100452.38
2022-08-09T05:39:42.828Z,100452.94
2022-08-09T05:42:17.438Z,100452.53
2022-08-09T05:44:54.631Z,100456.06
2022-08-09T05:47:25.116Z,100449.94
2022-08-09T05:50:24.545Z,100452.78
2022-08-09T05:52:53.628Z,100463.88
2022-08-09T05:55:23.452Z,100452.94
2022-08-09T05:57:56.927Z,100451.63
2022-08-09T06:00:33.002Z,100449.63
2022-08-09T06:03:02.733Z,100456.81
2022-08-09T06:05:50.387Z,100454.81
2022-08-09T06:08:24.019Z,100456.13
2022-08-09T06:10:57.032Z,100460.94
2022-08-09T06:13:28.570Z,100458.69
2022-08-09T06:16:04.821Z,100473.56
2022-08-09T06:18:33.729Z,100466.72
2022-08-09T06:21:01.649Z,100469.91
2022-08-09T06:23:58.171Z,100473.41
2022-08-09T06:26:22.572Z,100472.47
2022-08-09T06:28:59.468Z,100477.03
2022-08-09T06:31:31.166Z,100478.28
2022-08-09T06:33:58.868Z,100481.78
2022-08-09T06:36:27.064Z,100478.22
2022-08-09T06:38:54.855Z,100479.72
2022-08-09T06:41:24.925Z,100475.56
2022-08-09T06:44:14.310Z,100477.47
2022-08-09T06:46:45.750Z,100483.59
2022-08-09T06:49:16.039Z,100479.66
2022-08-09T06:51:49.536Z,100488.53
2022-08-09T06:54:20.329Z,100483.53
2022-08-09T06:56:47.381Z,100489.72
2022-08-09T07:00:48.871Z,100492.09
2022-08-09T07:02:04.623Z,100488.03
2022-08-09T07:04:32.534Z,100493.22
2022-08-09T07:06:59.945Z,100488.94
2022-08-09T07:09:56.050Z,100489.53
2022-08-09T07:12:18.268Z,100480.72
2022-08-09T07:14:51.167Z,100487.09
2022-08-09T07:17:20.036Z,100499.03
2022-08-09T07:19:48.123Z,100501.69
2022-08-09T07:22:18.709Z,100494.19
2022-08-09T07:25:05.488Z,100499.22
2022-08-09T07:27:42.911Z,100514.63
2022-08-09T07:30:21.862Z,100506.88
2022-08-09T07:32:52.297Z,100503.34
2022-08-09T07:35:22.518Z,100504.28
2022-08-09T07:37:52.014Z,100501.94
2022-08-09T07:40:26.990Z,100505.00
2022-08-09T07:42:59.339Z,100506.38
2022-08-09T07:45:40.344Z,100506.13
2022-08-09T07:48:25.850Z,100506.97
2022-08-09T07:51:03.128Z,100506.44
2022-08-09T07:54:06.904Z,100510.63
2022-08-09T07:56:49.374Z,100511.47
2022-08-09T07:59:25.164Z,100503.81
2022-08-09T08:02:00.583Z,100516.44
2022-08-09T08:04:31.595Z,100505.53
2022-08-09T08:07:27.095Z,100517.28
2022-08-09T08:10:05.653Z,100515.94
2022-08-09T08:12:42.730Z,100518.94
2022-08-09T08:15:18.351Z,100518.09
2022-08-09T08:17:55.253Z,100525.75
2022-08-09T08:20:30.105Z,100519.72
2022-08-09T08:23:03.719Z,100516.16
2022-08-09T08:25:49.993Z,100523.53
2022-08-09T08:28:26.061Z,100518.56
2022-08-09T08:31:10.593Z,100517.16
2022-08-09T08:33:52.207Z,100520.63
2022-08-09T08:36:28.387Z,100519.50
2022-08-09T08:38:56.503Z,100513.72
2022-08-09T08:41:24.409Z,100524.69
2022-08-09T08:44:08.050Z,100521.59
2022-08-09T08:46:41.555Z,100514.41
2022-08-09T08:49:38.488Z,100520.38
2022-08-09T08:52:10.022Z,100516.16
2022-08-09T08:54:39.905Z,100511.19
2022-08-09T08:57:11.382Z,100516.59
2022-08-09T08:59:46.585Z,100523.38
2022-08-09T09:02:31.500Z,100524.97
2022-08-09T09:05:06.241Z,100521.88
2022-08-09T09:07:42.504Z,100525.22
2022-08-09T09:10:11.075Z,100530.06
2022-08-09T09:12:38.386Z,100521.78
2022-08-09T09:15:06.769Z,100530.03
2022-08-09T09:17:48.995Z,100529.63
2022-08-09T09:20:21.472Z,100512.50
2022-08-09T09:23:01.729Z,100513.94
2022-08-09T09:26:01.464Z,100518.94
2022-08-09T09:29:02.035Z,100517.31
2022-08-09T09:32:03.764Z,100520.59
2022-08-09T09:34:15.160Z,100515.81
2022-08-09T09:36:51.068Z,100515.88
2022-08-09T09:39:42.887Z,100516.91
2022-08-09T09:42:27.628Z,100514.03
2022-08-09T09:45:00.554Z,100510.09
2022-08-09T09:47:28.873Z,100503.03
2022-08-09T09:50:14.780Z,100504.84
2022-08-09T09:52:56.229Z,100495.94
2022-08-09T09:55:32.321Z,100502.09
2022-08-09T09:58:16.188Z,100504.53
2022-08-09T10:00:54.677Z,100506.63
2022-08-09T10:03:56.977Z,100506.75
2022-08-09T10:06:25.596Z,100505.41
2022-08-09T10:09:21.457Z,100506.66
2022-08-09T10:12:11.415Z,100504.63
2022-08-09T10:14:40.194Z,100497.69
2022-08-09T10:17:50.101Z,100495.53
2022-08-09T10:20:27.577Z,100497.81
2022-08-09T10:23:20.250Z,100498.09
2022-08-09T10:26:06.266Z,100486.75
2022-08-09T10:28:37.914Z,100486.25
2022-08-09T10:34:09.822Z,100482.69
2022-08-09T10:36:50.111Z,100491.22
2022-08-09T10:39:19.524Z,100480.44
2022-08-09T10:41:47.663Z,100496.72
2022-08-09T10:44:23.096Z,100485.03
2022-08-09T10:48:12.099Z,100481.56
2022-08-09T10:50:31.335Z,100482.88
2022-08-09T10:53:26.899Z,100480.53
2022-08-09T10:56:17.585Z,100479.63
2022-08-09T10:58:59.196Z,100475.22
2022-08-09T11:03:27.583Z,100468.66
2022-08-09T11:04:31.369Z,100482.66
2022-08-09T11:06:59.621Z,100473.16
2022-08-09T11:09:41.432Z,100460.59
2022-08-09T11:12:26.404Z,100461.56
2022-08-09T11:15:01.416Z,100467.63
2022-08-09T11:17:31.650Z,100458.50
2022-08-09T11:20:20.205Z,100475.31
2022-08-09T11:22:55.531Z,100465.31
2022-08-09T11:25:36.154Z,100472.22
2022-08-09T11:28:38.613Z,100466.31
2022-08-09T11:31:49.189Z,100466.94
2022-08-09T11:34:42.836Z,100474.81
2022-08-09T11:37:17.940Z,100469.47
2022-08-09T11:40:04.679Z,100474.19
2022-08-09T11:42:40.976Z,100459.81
2022-08-09T11:45:42.786Z,100453.91
2022-08-09T11:48:26.445Z,100456.28
2022-08-09T11:52:59.015Z,100444.66
2022-08-09T11:54:01.106Z,100448.75
2022-08-09T11:56:41.928Z,100458.81
2022-08-09T11:59:30.539Z,100447.25
2022-08-09T12:02:34.412Z,100444.56
2022-08-09T12:04:58.157Z,100440.88
2022-08-09T12:07:41.345Z,100440.00
2022-08-09T12:10:14.061Z,100430.06
2022-08-09T12:12:58.923Z,100427.56
2022-08-09T12:15:48.733Z,100432.97
2022-08-09T12:18:26.227Z,100445.31
2022-08-09T12:21:00.354Z,100427.59
2022-08-09T12:23:57.892Z,100420.81
2022-08-09T12:26:26.348Z,100422.41
2022-08-09T12:29:10.807Z,100421.25
2022-08-09T12:32:02.539Z,100423.38
2022-08-09T12:34:42.734Z,100419.97
2022-08-09T12:37:23.379Z,100429.09
2022-08-09T12:40:11.255Z,100422.09
2022-08-09T12:42:44.624Z,100413.22
2022-08-09T12:45:33.888Z,100408.25
2022-08-09T12:47:59.732Z,100409.53
2022-08-09T12:50:28.711Z,100413.50
2022-08-09T12:53:08.159Z,100408.66
2022-08-09T12:56:16.286Z,100406.78
2022-08-09T12:58:27.677Z,100406.47
2022-08-09T13:00:56.014Z,100398.84
2022-08-09T13:03:54.185Z,100406.03
2022-08-09T13:06:34.057Z,100400.84
2022-08-09T13:09:14.712Z,100403.75
2022-08-09T13:11:52.180Z,100391.38
2022-08-09T13:14:43.614Z,100395.13
2022-08-09T13:17:21.870Z,100392.88
2022-08-09T13:20:20.253Z,100386.66
2022-08-09T13:23:05.148Z,100384.03
2022-08-09T13:25:54.811Z,100386.97
2022-08-09T13:28:34.147Z,100391.38
2022-08-09T13:32:16.646Z,100393.28
2022-08-09T13:33:58.690Z,100374.63
2022-08-09T13:36:40.991Z,100382.94
2022-08-09T13:41:46.489Z,100374.47
2022-08-09T13:42:14.366Z,100383.75
2022-08-09T13:44:44.214Z,100379.50
2022-08-09T13:47:33.768Z,100373.00
2022-08-09T13:50:17.935Z,100371.88
2022-08-09T13:52:57.175Z,100370.38
2022-08-09T13:55:24.797Z,100369.22
2022-08-09T13:57:58.417Z,100372.66
2022-08-09T14:00:29.289Z,100374.31
2022-08-09T14:03:02.720Z,100366.16
2022-08-09T14:06:00.432Z,100364.84
2022-08-09T14:08:31.597Z,100366.00
2022-08-09T14:11:00.577Z,100374.94
2022-08-09T14:14:22.450Z,100371.19
2022-08-09T14:16:28.337Z,100364.38
2022-08-09T14:18:57.356Z,100367.97
2022-08-09T14:21:28.968Z,100361.63
2022-08-09T14:23:57.637Z,100358.50
2022-08-09T14:26:32.473Z,100363.88
2022-08-09T14:30:04.423Z,100361.59
2022-08-09T14:31:55.191Z,100346.31
2022-08-09T14:34:30.757Z,100356.72
2022-08-09T14:37:02.202Z,100346.31
2022-08-09T14:39:45.330Z,100357.06
2022-08-09T14:42:30.564Z,100353.94
2022-08-09T14:46:39.643Z,100349.06
2022-08-09T14:48:00.322Z,100353.97
2022-08-09T14:50:34.204Z,100350.03
2022-08-09T14:53:11.736Z,100352.44
2022-08-09T14:55:49.947Z,100343.31
2022-08-09T14:58:17.632Z,100325.19
2022-08-09T15:00:48.338Z,100344.53
2022-08-09T15:03:20.180Z,100345.34
2022-08-09T15:05:51.286Z,100351.34
2022-08-09T15:08:23.788Z,100351.66
2022-08-09T15:11:01.114Z,100343.34
2022-08-09T15:13:56.027Z,100333.84
2022-08-09T15:16:19.677Z,100342.03
2022-08-09T15:18:48.352Z,100335.75
2022-08-09T15:21:55.920Z,100335.09
2022-08-09T15:24:11.414Z,100330.06
2022-08-09T15:26:46.347Z,100335.09
2022-08-09T15:30:57.361Z,100338.03
2022-08-09T15:32:02.104Z,100336.09
2022-08-09T15:34:34.605Z,100331.66
2022-08-09T15:37:24.041Z,100333.66
2022-08-09T15:40:12.107Z,100319.97
2022-08-09T15:42:43.047Z,100339.94
2022-08-09T15:45:13.164Z,100328.91
2022-08-09T15:47:51.619Z,100333.16
2022-08-09T15:50:28.983Z,100325.13
2022-08-09T15:53:06.342Z,100322.09
2022-08-09T15:55:34.524Z,100312.31
2022-08-09T15:58:26.647Z,100318.63
2022-08-09T16:00:54.216Z,100319.91
2022-08-09T16:03:29.459Z,100316.03
2022-08-09T16:06:07.241Z,100326.28
2022-08-09T16:08:55.920Z,100311.13
2022-08-09T16:11:22.903Z,100322.56
2022-08-09T16:14:06.333Z,100310.53
2022-08-09T16:16:37.129Z,100315.88
2022-08-09T16:19:10.545Z,100329.59
2022-08-09T16:21:42.899Z,100317.06
2022-08-09T16:24:32.936Z,100327.16
2022-08-09T16:27:05.038Z,100313.78
2022-08-09T16:29:36.930Z,100315.28
2022-08-09T16:32:18.559Z,100315.91
2022-08-09T16:34:56.564Z,100317.06
2022-08-09T16:37:54.078Z,100317.38
2022-08-09T16:40:29.921Z,100323.25
2022-08-09T16:43:04.497Z,100321.72
2022-08-09T16:45:31.883Z,100321.56
2022-08-09T16:48:41.088Z,100312.63
2022-08-09T16:50:49.618Z,100319.94
2022-08-09T16:53:33.851Z,100312.78
2022-08-09T16:56:07.578Z,100311.31
2022-08-09T16:58:39.773Z,100305.13
2022-08-09T17:01:10.465Z,100316.03
2022-08-09T17:03:37.831Z,100312.69
2022-08-09T17:06:28.159Z,100307.22
2022-08-09T17:09:00.015Z,100308.38
2022-08-09T17:11:40.609Z,100316.22
2022-08-09T17:14:26.283Z,100316.19
2022-08-09T17:17:02.851Z,100319.00
2022-08-09T17:20:06.164Z,100323.22
2022-08-09T17:22:24.789Z,100319.34
2022-08-09T17:25:02.794Z,100323.50
2022-08-09T17:27:32.754Z,100317.09
2022-08-09T17:30:00.177Z,100324.72
2022-08-09T17:32:37.718Z,100319.66
2022-08-09T17:35:11.842Z,100325.16
2022-08-09T17:38:02.433Z,100318.38
2022-08-09T17:40:34.484Z,100320.16
2022-08-09T17:43:32.763Z,100332.34
2022-08-09T17:46:03.612Z,100326.81
2022-08-09T17:48:40.537Z,100330.31
2022-08-09T17:51:20.124Z,100329.72
2022-08-09T17:53:52.259Z,100332.31
2022-08-09T17:56:35.582Z,100337.34
2022-08-09T17:59:09.213Z,100337.47
2022-08-09T18:01:58.181Z,100343.06
2022-08-09T18:04:26.396Z,100345.47
2022-08-09T18:06:55.187Z,100342.97
2022-08-09T18:09:25.350Z,100344.84
2022-08-09T18:12:17.200Z,100348.25
2022-08-09T18:14:49.755Z,100356.63
2022-08-09T18:17:18.911Z,100342.81
2022-08-09T18:20:54.197Z,100343.25
2022-08-09T18:22:51.051Z,100337.34
2022-08-09T18:25:19.717Z,100354.28
2022-08-09T18:28:04.126Z,100354.06
2022-08-09T18:30:39.958Z,100346.16
2022-08-09T18:33:16.243Z,100355.34
2022-08-09T18:35:59.886Z,100351.06
2022-08-09T18:38:27.834Z,100349.66
2022-08-09T18:40:55.530Z,100353.34
2022-08-09T18:43:23.552Z,100357.41
2022-08-09T18:46:49.928Z,100362.81
2022-08-09T18:48:37.832Z,100368.41
2022-08-09T18:51:05.108Z,100372.06
2022-08-09T18:54:00.666Z,100378.94
2022-08-09T18:56:28.004Z,100374.16
2022-08-09T18:59:01.001Z,100379.31
2022-08-09T19:01:28.582Z,100387.78
2022-08-09T19:04:10.479Z,100384.09
2022-08-09T19:06:39.018Z,100383.97
2022-08-09T19:09:20.571Z,100381.69
2022-08-09T19:12:07.527Z,100379.78
2022-08-09T19:14:34.967Z,100389.28
2022-08-09T19:17:03.618Z,100380.03
2022-08-09T19:19:39.022Z,100385.31
2022-08-09T19:22:08.360Z,100388.09
2022-08-09T19:25:11.537Z,100391.75
2022-08-09T19:27:28.707Z,100393.47
2022-08-09T19:30:25.033Z,100395.78
2022-08-09T19:32:44.162Z,100394.78
2022-08-09T19:35:11.167Z,100400.03
2022-08-09T19:37:54.262Z,100401.19
2022-08-09T19:40:23.675Z,100402.13
2022-08-09T19:43:02.058Z,100398.38
2022-08-09T19:45:35.542Z,100398.44
2022-08-09T19:48:07.305Z,100394.94
2022-08-09T19:50:49.315Z,100399.09
2022-08-09T19:53:20.788Z,100397.50
2022-08-09T19:56:02.179Z,100399.75
2022-08-09T19:58:33.067Z,100406.38
2022-08-09T20:01:00.245Z,100404.78
2022-08-09T20:04:18.018Z,100403.72
2022-08-09T20:06:23.372Z,100404.34
2022-08-09T20:08:56.976Z,100407.97
2022-08-09T20:11:26.573Z,100398.97
2022-08-09T20:13:55.410Z,100402.28
2022-08-09T20:16:37.360Z,100408.34
2022-08-09T20:19:47.987Z,100398.53
2022-08-09T20:22:00.652Z,100407.31
2022-08-09T20:24:31.731Z,100404.38
2022-08-09T20:27:07.894Z,100397.00
2022-08-09T20:29:39.164Z,100402.47
2022-08-09T20:32:28.901Z,100401.13
2022-08-09T20:34:56.620Z,100408.03
2022-08-09T20:37:24.711Z,100399.84
2022-08-09T20:40:15.740Z,100400.66
2022-08-09T20:42:38.996Z,100405.31
2022-08-09T20:45:59.591Z,100403.16
2022-08-09T20:47:58.122Z,100402.06
2022-08-09T20:50:48.368Z,100409.50
2022-08-09T20:53:21.184Z,100406.75
2022-08-09T20:56:02.801Z,100403.22
2022-08-09T20:58:32.410Z,100402.13
2022-08-09T21:01:32.934Z,100408.16
2022-08-09T21:05:52.443Z,100410.91
2022-08-09T21:06:41.276Z,100402.72
2022-08-09T21:09:13.857Z,100408.75
2022-08-09T21:14:30.812Z,100414.22
2022-08-09T21:16:59.229Z,100413.16
2022-08-09T21:20:19.433Z,100413.16
2022-08-09T21:22:23.096Z,100413.13
2022-08-09T21:25:20.810Z,100418.34
2022-08-09T21:27:50.982Z,100419.16
2022-08-09T21:30:22.115Z,100412.34
2022-08-09T21:32:51.284Z,100413.97
2022-08-09T21:35:18.550Z,100415.88
2022-08-09T21:37:59.480Z,100415.59
2022-08-09T21:40:30.139Z,100417.25
2022-08-09T21:43:06.974Z,100417.53
2022-08-09T21:45:38.980Z,100415.63
2022-08-09T21:48:07.699Z,100421.06
2022-08-09T21:50:38.512Z,100420.78
2022-08-09T21:53:15.781Z,100411.25
2022-08-09T21:55:55.318Z,100414.25
2022-08-09T21:58:31.144Z,100419.16
2022-08-09T22:00:59.087Z,100415.59
2022-08-09T22:03:26.329Z,100414.78
2022-08-09T22:05:55.648Z,100422.41
2022-08-09T22:08:25.761Z,100421.84
2022-08-09T22:11:49.910Z,100419.69
2022-08-09T22:13:43.513Z,100422.69
2022-08-09T22:16:12.025Z,100413.69
2022-08-09T22:18:53.664Z,100414.16
2022-08-09T22:21:50.157Z,100410.09
2022-08-09T22:24:17.190Z,100422.91
2022-08-09T22:26:51.813Z,100421.28
2022-08-09T22:29:28.401Z,100420.72
2022-08-09T22:31:59.270Z,100417.97
2022-08-09T22:34:27.274Z,100424.53
2022-08-09T22:36:56.115Z,100419.88
2022-08-09T22:39:58.048Z,100425.88
2022-08-09T22:42:21.166Z,100421.22
2022-08-09T22:45:00.260Z,100420.66
2022-08-09T22:48:15.100Z,100419.59
2022-08-09T22:50:28.370Z,100414.66
2022-08-09T22:52:58.386Z,100416.28
2022-08-09T22:55:39.265Z,100426.63
2022-08-09T22:58:20.352Z,100421.72
2022-08-09T23:01:05.410Z,100420.06
2022-08-09T23:04:04.733Z,100421.16
2022-08-09T23:06:34.986Z,100424.44
2022-08-09T23:09:07.213Z,100416.22
2022-08-09T23:11:34.816Z,100423.84
2022-08-09T23:14:03.409Z,100424.94
2022-08-09T23:16:31.459Z,100420.56
2022-08-09T23:18:58.528Z,100425.47
2022-08-09T23:21:30.092Z,100423.00
2022-08-09T23:24:06.815Z,100431.50
2022-08-09T23:26:39.191Z,100431.44
2022-08-09T23:29:09.847Z,100422.97
2022-08-09T23:31:37.631Z,100429.78
2022-08-09T23:34:04.578Z,100424.63
2022-08-09T23:36:33.679Z,100418.56
2022-08-09T23:39:01.354Z,100417.16
2022-08-09T23:41:29.675Z,100426.97
2022-08-09T23:43:58.919Z,100424.78
2022-08-09T23:46:27.398Z,100426.38
2022-08-09T23:48:54.444Z,100422.56
2022-08-09T23:51:21.654Z,100424.22
2022-08-09T23:53:50.537Z,100416.53
2022-08-09T23:56:52.118Z,100420.91
2022-08-09T23:59:06.859Z,100416.53
